No particular awareness of the weather is required.    There are no Weather-warnings


Meteo18 Weather Cam more information Meteo18 Weather Cam


Thunder radar more information blitzortung!


Rain radar more information rain snow radar


Visit our other weather sites:

Template documentation
and downloads

And another site



Weather Underground History page Text

Daily Summary for July 31, 2017 Units:  Metric    English   Both
« Previous Day
Next Day »
Daily Weekly Monthly Yearly Custom
  High: Low: Average:
Temperature: 25.6 °C 14.2 °C 20 °C
Dew Point: 16.6 °C 12.2 °C 14.5 °C
Humidity: 92 % 54 % 72 %
Wind Speed: 17.7 km/h 0.0 km/h 4.1 km/h
Wind Gust: 24.1 km/h - -
Wind:- - SSE
Pressure: 1016.8 hPa 1012.8 hPa -
Precipitation: 16.5 mm    
Historical Graphs
 
 
Tabular Data for July 31, 2017
Time Temperature Dew Point Pressure Wind Wind Speed Wind Gust Humidity Rainfall Rate (Hourly)
00:02 19.7 °C 14.1 °C 1015.8 hPa SSW 1.6 km/h 6.4 km/h 70 % 0.0 mm
00:12 19.4 °C 14.0 °C 1015.8 hPa South 4.8 km/h 6.4 km/h 71 % 0.0 mm
00:17 19.3 °C 13.9 °C 1016.1 hPa SSW 3.2 km/h 8.0 km/h 71 % 0.0 mm
00:22 19.3 °C 13.7 °C 1016.1 hPa SW 3.2 km/h 8.0 km/h 70 % 0.0 mm
00:32 19.3 °C 13.7 °C 1016.1 hPa SSW 1.6 km/h 8.0 km/h 70 % 0.0 mm
00:37 19.4 °C 13.8 °C 1016.1 hPa SW 3.2 km/h 8.0 km/h 70 % 0.0 mm
00:47 19.3 °C 13.7 °C 1016.1 hPa Calm   6.4 km/h 70 % 0.0 mm
00:52 19.2 °C 13.8 °C 1016.1 hPa Calm   6.4 km/h 71 % 0.0 mm
01:02 18.9 °C 13.7 °C 1016.5 hPa Calm   3.2 km/h 72 % 0.0 mm
01:09 18.8 °C 13.6 °C 1016.5 hPa Calm     72 % 0.0 mm
01:17 18.9 °C 13.5 °C 1016.5 hPa WSW 1.6 km/h 1.6 km/h 71 % 0.0 mm
01:22 18.9 °C 13.5 °C 1016.1 hPa Calm   3.2 km/h 71 % 0.0 mm
01:32 18.9 °C 13.5 °C 1016.1 hPa Calm   3.2 km/h 71 % 0.0 mm
01:42 18.6 °C 13.7 °C 1016.1 hPa Calm   1.6 km/h 73 % 0.0 mm
01:52 18.2 °C 13.5 °C 1016.1 hPa Calm   1.6 km/h 74 % 0.0 mm
02:02 18.1 °C 13.4 °C 1016.1 hPa SE 1.6 km/h 3.2 km/h 74 % 0.0 mm
02:07 18.1 °C 13.4 °C 1016.1 hPa Calm   3.2 km/h 74 % 0.0 mm
02:12 18.0 °C 13.3 °C 1016.1 hPa Calm   3.2 km/h 74 % 0.0 mm
02:17 17.9 °C 13.4 °C 1016.1 hPa Calm   1.6 km/h 75 % 0.0 mm
02:22 17.7 °C 13.6 °C 1016.1 hPa Calm   1.6 km/h 77 % 0.0 mm
02:27 17.4 °C 13.5 °C 1016.1 hPa Calm   1.6 km/h 78 % 0.0 mm
02:32 17.3 °C 13.6 °C 1016.1 hPa Calm     79 % 0.0 mm
02:42 17.6 °C 13.5 °C 1016.1 hPa Calm   1.6 km/h 77 % 0.0 mm
02:52 17.7 °C 13.4 °C 1016.1 hPa Calm   3.2 km/h 76 % 0.0 mm
02:57 17.6 °C 13.5 °C 1016.1 hPa Calm   1.6 km/h 77 % 0.0 mm
03:02 17.4 °C 13.3 °C 1016.1 hPa Calm   1.6 km/h 77 % 0.0 mm
03:12 17.3 °C 13.4 °C 1015.8 hPa Calm   1.6 km/h 78 % 0.0 mm
03:17 17.2 °C 13.1 °C 1015.8 hPa Calm   1.6 km/h 77 % 0.0 mm
03:22 17.1 °C 13.2 °C 1015.8 hPa Calm   1.6 km/h 78 % 0.0 mm
03:32 17.2 °C 13.1 °C 1015.8 hPa Calm   4.8 km/h 77 % 0.0 mm
03:42 17.3 °C 13.2 °C 1015.5 hPa West 1.6 km/h 4.8 km/h 77 % 0.0 mm
03:47 17.2 °C 13.1 °C 1015.5 hPa WNW 3.2 km/h 4.8 km/h 77 % 0.0 mm
03:52 17.2 °C 13.1 °C 1015.5 hPa WNW 3.2 km/h 4.8 km/h 77 % 0.0 mm
03:57 17.2 °C 13.1 °C 1015.5 hPa Calm   4.8 km/h 77 % 0.0 mm
04:02 17.2 °C 13.1 °C 1015.5 hPa WNW 3.2 km/h 6.4 km/h 77 % 0.0 mm
04:12 17.4 °C 13.1 °C 1015.5 hPa NE 3.2 km/h 6.4 km/h 76 % 0.0 mm
04:17 17.3 °C 13.0 °C 1015.8 hPa ESE 3.2 km/h 8.0 km/h 76 % 0.0 mm
04:22 17.3 °C 13.0 °C 1015.5 hPa Calm   8.0 km/h 76 % 0.0 mm
04:32 16.7 °C 13.0 °C 1015.5 hPa Calm   6.4 km/h 79 % 0.0 mm
04:42 16.2 °C 12.7 °C 1015.8 hPa Calm   6.4 km/h 80 % 0.0 mm
04:47 15.9 °C 12.8 °C 1015.8 hPa Calm   4.8 km/h 82 % 0.0 mm
04:52 15.7 °C 12.8 °C 1015.8 hPa Calm   1.6 km/h 83 % 0.0 mm
04:57 15.7 °C 12.8 °C 1015.8 hPa Calm   1.6 km/h 83 % 0.0 mm
05:02 15.6 °C 12.7 °C 1015.5 hPa Calm   1.6 km/h 83 % 0.0 mm
05:12 15.9 °C 12.8 °C 1015.5 hPa Calm   1.6 km/h 82 % 0.0 mm
05:17 15.6 °C 12.5 °C 1015.8 hPa WNW 1.6 km/h 1.6 km/h 82 % 0.0 mm
05:22 15.3 °C 12.6 °C 1015.8 hPa Calm   3.2 km/h 84 % 0.0 mm
05:32 15.2 °C 12.7 °C 1015.8 hPa Calm   3.2 km/h 85 % 0.0 mm
05:37 15.1 °C 12.6 °C 1016.1 hPa Calm   3.2 km/h 85 % 0.0 mm
05:42 15.2 °C 12.7 °C 1015.8 hPa Calm   1.6 km/h 85 % 0.0 mm
05:52 15.0 °C 12.5 °C 1016.1 hPa Calm     85 % 0.0 mm
05:57 14.9 °C 12.4 °C 1016.1 hPa Calm     85 % 0.0 mm
06:02 14.8 °C 12.5 °C 1015.8 hPa Calm     86 % 0.0 mm
06:12 14.8 °C 12.5 °C 1016.1 hPa Calm     86 % 0.0 mm
06:17 14.7 °C 12.4 °C 1016.1 hPa Calm   1.6 km/h 86 % 0.0 mm
06:22 14.6 °C 12.5 °C 1015.8 hPa Calm   1.6 km/h 87 % 0.0 mm
06:32 14.4 °C 12.3 °C 1016.1 hPa Calm   1.6 km/h 87 % 0.0 mm
06:42 14.4 °C 12.4 °C 1016.1 hPa Calm   1.6 km/h 88 % 0.0 mm
06:47 14.3 °C 12.3 °C 1016.1 hPa Calm   1.6 km/h 88 % 0.0 mm
06:52 14.2 °C 12.2 °C 1016.1 hPa Calm   3.2 km/h 88 % 0.0 mm
07:02 14.2 °C 12.4 °C 1016.1 hPa Calm   1.6 km/h 89 % 0.0 mm
07:12 14.2 °C 12.4 °C 1016.1 hPa Calm   1.6 km/h 89 % 0.0 mm
07:17 14.4 °C 12.6 °C 1015.8 hPa NNW 3.2 km/h 3.2 km/h 89 % 0.0 mm
07:22 14.8 °C 13.0 °C 1015.8 hPa Calm   3.2 km/h 89 % 0.0 mm
07:32 15.2 °C 13.0 °C 1015.8 hPa North 3.2 km/h 6.4 km/h 87 % 0.0 mm
07:42 15.5 °C 13.2 °C 1015.5 hPa Calm   6.4 km/h 86 % 0.0 mm
07:52 16.1 °C 13.6 °C 1015.5 hPa Calm   8.0 km/h 85 % 0.0 mm
07:57 16.4 °C 13.7 °C 1015.8 hPa Calm   6.4 km/h 84 % 0.0 mm
08:02 16.9 °C 14.0 °C 1015.8 hPa Calm   6.4 km/h 83 % 0.0 mm
08:07 17.3 °C 14.0 °C 1016.1 hPa Calm   3.2 km/h 81 % 0.0 mm
08:12 17.5 °C 14.2 °C 1016.1 hPa Calm   3.2 km/h 81 % 0.0 mm
08:17 17.4 °C 14.1 °C 1015.8 hPa Calm     81 % 0.0 mm
08:22 17.4 °C 14.3 °C 1015.8 hPa Calm     82 % 0.0 mm
08:32 17.7 °C 14.2 °C 1016.1 hPa Calm     80 % 0.0 mm
08:37 17.8 °C 14.1 °C 1016.5 hPa Calm     79 % 0.0 mm
08:42 17.7 °C 14.2 °C 1016.8 hPa Calm     80 % 0.0 mm
08:52 17.7 °C 14.2 °C 1016.1 hPa Calm     80 % 0.0 mm
09:02 18.0 °C 14.1 °C 1015.5 hPa NNE 6.4 km/h   78 % 0.0 mm
09:12 18.2 °C 14.1 °C 1015.8 hPa ENE 3.2 km/h 9.7 km/h 77 % 0.0 mm
09:17 18.2 °C 13.9 °C 1015.8 hPa NE 4.8 km/h 9.7 km/h 76 % 0.0 mm
09:22 18.3 °C 13.8 °C 1015.8 hPa NNE 8.0 km/h 9.7 km/h 75 % 0.0 mm
09:32 18.3 °C 13.6 °C 1016.1 hPa NNE 4.8 km/h 11.3 km/h 74 % 0.0 mm
09:42 18.6 °C 13.7 °C 1016.5 hPa ENE 4.8 km/h 9.7 km/h 73 % 0.0 mm
09:47 18.8 °C 13.6 °C 1016.1 hPa NNE 4.8 km/h 9.7 km/h 72 % 0.0 mm
09:52 18.8 °C 13.6 °C 1015.8 hPa NE 4.8 km/h 8.0 km/h 72 % 0.0 mm
10:02 18.8 °C 13.4 °C 1015.8 hPa ENE 4.8 km/h 9.7 km/h 71 % 0.0 mm
10:12 19.0 °C 14.0 °C 1016.8 hPa Calm   11.3 km/h 73 % 0.0 mm
10:17 19.3 °C 13.5 °C 1016.5 hPa ESE 1.6 km/h 11.3 km/h 69 % 0.0 mm
10:22 19.4 °C 13.8 °C 1016.5 hPa ENE 4.8 km/h 6.4 km/h 70 % 0.0 mm
10:32 19.3 °C 13.7 °C 1016.1 hPa ENE 6.4 km/h 12.9 km/h 70 % 0.0 mm
10:37 19.3 °C 13.9 °C 1016.5 hPa East 1.6 km/h 12.9 km/h 71 % 0.0 mm
10:42 19.6 °C 14.2 °C 1016.5 hPa ENE 3.2 km/h 12.9 km/h 71 % 0.0 mm
10:52 20.3 °C 14.2 °C 1016.1 hPa Calm   6.4 km/h 68 % 0.0 mm
10:57 20.4 °C 14.3 °C 1016.1 hPa NE 3.2 km/h 6.4 km/h 68 % 0.0 mm
11:02 20.4 °C 14.3 °C 1016.1 hPa ENE 1.6 km/h 6.4 km/h 68 % 0.0 mm
11:12 20.1 °C 14.0 °C 1015.5 hPa Calm   6.4 km/h 68 % 0.0 mm
11:22 20.3 °C 14.0 °C 1015.5 hPa ENE 3.2 km/h 12.9 km/h 67 % 0.0 mm
11:32 20.7 °C 14.1 °C 1015.5 hPa East 9.7 km/h 11.3 km/h 66 % 0.0 mm
11:42 20.7 °C 13.4 °C 1015.5 hPa ENE 1.6 km/h 12.9 km/h 63 % 0.0 mm
11:52 20.8 °C 13.7 °C 1015.5 hPa NE 6.4 km/h 12.9 km/h 64 % 0.0 mm
11:57 21.1 °C 13.8 °C 1015.1 hPa NNE 1.6 km/h 12.9 km/h 63 % 0.0 mm
12:02 21.4 °C 14.1 °C 1015.5 hPa ENE 3.2 km/h 12.9 km/h 63 % 0.0 mm
12:12 21.7 °C 14.1 °C 1015.1 hPa NE 11.3 km/h 16.1 km/h 62 % 0.0 mm
12:17 21.7 °C 13.8 °C 1015.1 hPa ENE 4.8 km/h 16.1 km/h 61 % 0.0 mm
12:22 21.7 °C 13.8 °C 1015.1 hPa NNE 8.0 km/h 16.1 km/h 61 % 0.0 mm
12:27 21.6 °C 13.8 °C 1015.1 hPa NNW 8.0 km/h 16.1 km/h 61 % 0.0 mm
12:32 21.7 °C 14.6 °C 1015.1 hPa NE 9.7 km/h 16.1 km/h 64 % 0.0 mm
12:42 21.4 °C 14.8 °C 1015.5 hPa East 1.6 km/h 16.1 km/h 66 % 0.0 mm
12:47 21.4 °C 15.0 °C 1015.5 hPa SSE 1.6 km/h 16.1 km/h 67 % 0.0 mm
12:52 21.6 °C 15.2 °C 1015.1 hPa ESE 4.8 km/h 12.9 km/h 67 % 0.0 mm
13:02 21.7 °C 15.3 °C 1015.1 hPa ESE 8.0 km/h 12.9 km/h 67 % 0.0 mm
13:12 21.7 °C 15.1 °C 1015.1 hPa NE 4.8 km/h 9.7 km/h 66 % 0.0 mm
13:17 21.7 °C 14.8 °C 1015.1 hPa ENE 1.6 km/h 12.9 km/h 65 % 0.0 mm
13:22 21.7 °C 14.8 °C 1015.1 hPa SSE 1.6 km/h 12.9 km/h 65 % 0.0 mm
13:32 21.6 °C 14.7 °C 1015.1 hPa East 3.2 km/h 12.9 km/h 65 % 0.0 mm
13:42 22.0 °C 15.1 °C 1014.8 hPa East 4.8 km/h 11.3 km/h 65 % 0.0 mm
13:52 22.3 °C 14.9 °C 1014.8 hPa North 12.9 km/h 14.5 km/h 63 % 0.0 mm
13:57 22.6 °C 15.2 °C 1014.4 hPa NE 3.2 km/h 19.3 km/h 63 % 0.0 mm
14:02 23.2 °C 15.0 °C 1014.4 hPa NNE 4.8 km/h 19.3 km/h 60 % 0.0 mm
14:12 22.9 °C 15.2 °C 1014.4 hPa ENE 9.7 km/h 16.1 km/h 62 % 0.0 mm
14:17 23.1 °C 15.2 °C 1014.4 hPa ENE 4.8 km/h 16.1 km/h 61 % 0.0 mm
14:22 23.2 °C 15.0 °C 1014.4 hPa ENE 6.4 km/h 16.1 km/h 60 % 0.0 mm
14:32 23.3 °C 14.8 °C 1014.4 hPa NE 6.4 km/h 16.1 km/h 59 % 0.0 mm
14:42 23.4 °C 14.9 °C 1014.4 hPa NNW 3.2 km/h 16.1 km/h 59 % 0.0 mm
14:47 23.5 °C 15.0 °C 1014.4 hPa Calm   16.1 km/h 59 % 0.0 mm
14:52 23.7 °C 15.2 °C 1014.4 hPa East 3.2 km/h 16.1 km/h 59 % 0.0 mm
15:02 24.1 °C 15.3 °C 1014.4 hPa NE 9.7 km/h 12.9 km/h 58 % 0.0 mm
15:07 24.3 °C 15.2 °C 1014.1 hPa NE 4.8 km/h 16.1 km/h 57 % 0.0 mm
15:12 24.5 °C 15.1 °C 1014.1 hPa NNW 1.6 km/h 16.1 km/h 56 % 0.0 mm
15:22 24.6 °C 15.2 °C 1014.1 hPa East 8.0 km/h 16.1 km/h 56 % 0.0 mm
15:27 24.8 °C 15.1 °C 1014.1 hPa NE 9.7 km/h 14.5 km/h 55 % 0.0 mm
15:37 24.7 °C 15.3 °C 1014.1 hPa NNE 6.4 km/h 16.1 km/h 56 % 0.0 mm
15:42 24.6 °C 15.2 °C 1013.8 hPa ESE 4.8 km/h 16.1 km/h 56 % 0.0 mm
15:52 24.9 °C 15.2 °C 1013.8 hPa NE 4.8 km/h 11.3 km/h 55 % 0.0 mm
15:57 25.1 °C 15.4 °C 1013.8 hPa Calm   11.3 km/h 55 % 0.0 mm
16:02 25.3 °C 15.6 °C 1013.4 hPa NNE 9.7 km/h 11.3 km/h 55 % 0.0 mm
16:12 25.4 °C 15.7 °C 1013.4 hPa NNW 6.4 km/h 14.5 km/h 55 % 0.0 mm
16:17 25.5 °C 15.5 °C 1013.4 hPa NNE 17.7 km/h 17.7 km/h 54 % 0.0 mm
16:22 25.3 °C 15.9 °C 1013.1 hPa NE 8.0 km/h 17.7 km/h 56 % 0.0 mm
16:32 25.3 °C 15.9 °C 1013.1 hPa NNE 8.0 km/h 19.3 km/h 56 % 0.0 mm
16:42 25.3 °C 15.9 °C 1013.4 hPa NNE 6.4 km/h 19.3 km/h 56 % 0.0 mm
16:52 25.6 °C 15.6 °C 1013.1 hPa NE 4.8 km/h 12.9 km/h 54 % 0.0 mm
16:57 25.4 °C 16.3 °C 1013.1 hPa NE 11.3 km/h 17.7 km/h 57 % 0.0 mm
17:02 25.2 °C 15.8 °C 1013.1 hPa NNW 3.2 km/h 19.3 km/h 56 % 0.0 mm
17:12 25.2 °C 16.1 °C 1013.1 hPa NNE 6.4 km/h 19.3 km/h 57 % 0.0 mm
17:17 25.2 °C 16.3 °C 1013.1 hPa North 3.2 km/h 20.9 km/h 58 % 0.0 mm
17:22 25.4 °C 16.0 °C 1013.1 hPa NNE 12.9 km/h 20.9 km/h 56 % 0.0 mm
17:32 25.1 °C 16.3 °C 1013.1 hPa NNW 4.8 km/h 16.1 km/h 58 % 0.0 mm
17:42 24.8 °C 16.2 °C 1012.8 hPa NNE 12.9 km/h 24.1 km/h 59 % 0.0 mm
17:52 24.7 °C 16.1 °C 1012.8 hPa NNE 4.8 km/h 20.9 km/h 59 % 0.0 mm
17:57 24.8 °C 16.2 °C 1012.8 hPa NW 8.0 km/h 19.3 km/h 59 % 0.0 mm
18:02 24.8 °C 16.5 °C 1012.8 hPa NNE 17.7 km/h 19.3 km/h 60 % 0.0 mm
18:12 24.7 °C 16.4 °C 1012.8 hPa NE 9.7 km/h 19.3 km/h 60 % 0.0 mm
18:17 24.6 °C 16.3 °C 1012.8 hPa NNW 6.4 km/h 19.3 km/h 60 % 0.0 mm
18:22 24.6 °C 16.3 °C 1012.8 hPa NNW 8.0 km/h 19.3 km/h 60 % 0.0 mm
18:32 24.4 °C 16.4 °C 1012.8 hPa NW 4.8 km/h 17.7 km/h 61 % 0.0 mm
18:42 24.4 °C 16.4 °C 1012.8 hPa NNE 9.7 km/h 19.3 km/h 61 % 0.0 mm
18:47 24.3 °C 16.3 °C 1012.8 hPa NNE 8.0 km/h 19.3 km/h 61 % 0.0 mm
18:52 24.3 °C 16.6 °C 1012.8 hPa NNW 6.4 km/h 19.3 km/h 62 % 0.0 mm
19:02 24.3 °C 16.3 °C 1012.8 hPa NNW 8.0 km/h 19.3 km/h 61 % 0.0 mm
19:12 24.4 °C 16.4 °C 1012.8 hPa NE 4.8 km/h 17.7 km/h 61 % 0.0 mm
19:17 24.4 °C 16.4 °C 1012.8 hPa North 9.7 km/h 19.3 km/h 61 % 0.0 mm
19:22 24.3 °C 16.3 °C 1012.8 hPa West 1.6 km/h 19.3 km/h 61 % 0.0 mm
19:32 24.1 °C 16.4 °C 1012.8 hPa NNW 4.8 km/h 19.3 km/h 62 % 0.0 mm
19:42 24.1 °C 16.4 °C 1012.8 hPa NW 3.2 km/h 17.7 km/h 62 % 0.0 mm
19:47 23.9 °C 16.4 °C 1012.8 hPa NE 6.4 km/h 17.7 km/h 63 % 0.0 mm
19:52 23.9 °C 16.4 °C 1012.8 hPa NE 12.9 km/h 17.7 km/h 63 % 0.0 mm
19:57 23.9 °C 16.4 °C 1012.8 hPa East 1.6 km/h 14.5 km/h 63 % 0.0 mm
20:02 23.9 °C 16.4 °C 1012.8 hPa NW 4.8 km/h 14.5 km/h 63 % 0.0 mm
20:12 23.8 °C 16.3 °C 1012.8 hPa NNW 4.8 km/h 14.5 km/h 63 % 0.0 mm
20:17 23.7 °C 16.2 °C 1012.8 hPa NE 8.0 km/h 17.7 km/h 63 % 0.0 mm
20:22 23.6 °C 16.1 °C 1012.8 hPa NNW 6.4 km/h 17.7 km/h 63 % 0.0 mm
20:27 23.4 °C 16.0 °C 1012.8 hPa NNE 9.7 km/h 17.7 km/h 63 % 0.0 mm
20:32 23.3 °C 15.9 °C 1012.8 hPa North 11.3 km/h 17.7 km/h 63 % 0.0 mm
20:37 23.2 °C 16.0 °C 1012.8 hPa NNW 8.0 km/h 19.3 km/h 64 % 0.0 mm
20:42 23.2 °C 16.0 °C 1012.8 hPa North 4.8 km/h 19.3 km/h 64 % 0.0 mm
20:52 22.9 °C 16.0 °C 1012.8 hPa NNE 8.0 km/h 16.1 km/h 65 % 0.0 mm
20:57 22.8 °C 15.9 °C 1012.8 hPa North 6.4 km/h 12.9 km/h 65 % 0.0 mm
21:02 22.7 °C 15.8 °C 1012.8 hPa NNW 3.2 km/h 12.9 km/h 65 % 0.0 mm
21:12 22.5 °C 15.8 °C 1012.8 hPa NNW 3.2 km/h 12.9 km/h 66 % 0.0 mm
21:22 22.3 °C 15.9 °C 1012.8 hPa North 12.9 km/h 12.9 km/h 67 % 0.0 mm
21:27 22.2 °C 15.8 °C 1013.1 hPa NW 1.6 km/h 12.9 km/h 67 % 0.0 mm
21:32 22.2 °C 15.8 °C 1013.1 hPa NNW 6.4 km/h 12.9 km/h 67 % 0.0 mm
21:42 22.1 °C 15.7 °C 1013.1 hPa North 6.4 km/h 14.5 km/h 67 % 0.0 mm
21:47 21.8 °C 15.6 °C 1012.8 hPa North 9.7 km/h 16.1 km/h 68 % 0.0 mm
21:52 21.4 °C 15.9 °C 1014.1 hPa WSW 9.7 km/h 16.1 km/h 71 % 0.0 mm
22:02 19.2 °C 16.2 °C 1013.8 hPa WNW 14.5 km/h 20.9 km/h 83 % 0.5 mm
22:12 17.9 °C 16.1 °C 1014.1 hPa North 4.8 km/h 20.9 km/h 89 % 7.1 mm
22:17 17.9 °C 16.2 °C 1014.1 hPa NNW 6.4 km/h 16.1 km/h 90 % 7.6 mm
22:22 17.9 °C 16.2 °C 1014.4 hPa North 6.4 km/h 14.5 km/h 90 % 7.6 mm
22:32 18.1 °C 16.3 °C 1013.8 hPa WNW 8.0 km/h 9.7 km/h 89 % 7.6 mm
22:42 18.1 °C 16.3 °C 1013.8 hPa NW 1.6 km/h 12.9 km/h 89 % 7.6 mm
22:52 17.9 °C 16.1 °C 1014.8 hPa WNW 12.9 km/h 17.7 km/h 89 % 7.9 mm
22:57 17.9 °C 15.9 °C 1014.1 hPa NNW 4.8 km/h 16.1 km/h 88 % 7.9 mm
23:02 17.6 °C 15.8 °C 1014.4 hPa NNW 9.7 km/h 16.1 km/h 89 % 5.1 mm
23:12 17.1 °C 15.6 °C 1014.8 hPa NW 4.8 km/h 17.7 km/h 91 % 2.8 mm
23:17 17.0 °C 15.7 °C 1014.1 hPa NNW 8.0 km/h 17.7 km/h 92 % 4.8 mm
23:22 17.0 °C 15.7 °C 1013.8 hPa ENE 3.2 km/h 17.7 km/h 92 % 4.8 mm
23:27 17.0 °C 15.5 °C 1013.8 hPa North 9.7 km/h 14.5 km/h 91 % 4.8 mm
23:32 17.1 °C 15.6 °C 1013.8 hPa NNW 4.8 km/h 16.1 km/h 91 % 4.8 mm
23:42 17.1 °C 15.4 °C 1014.1 hPa WNW 17.7 km/h 17.7 km/h 90 % 4.8 mm
23:52 16.4 °C 14.8 °C 1014.1 hPa NNW 4.8 km/h 22.5 km/h 90 % 6.1 mm
23:57 16.2 °C 14.7 °C 1013.8 hPa East 8.0 km/h 22.5 km/h 91 % 8.6 mm
Meteo18
Compliments of Weather Underground - 4 mb

Script developed by  Jim McMurry - jmcmurry@mwt.net Adapted for the template by  Wim van der Kuil - Leuven-Template.eu

You find our weather info also at:

European Weather Network

Weather Underground

Equipment we use:

Weather-station
Davis Vue

Weather-program
Meteohub

Weather-server
Raspberry PI 2 B+

Provider
1 and 1

Davis Vue

Meteohub

Raspberry PI 2 B+

1 and 1